Time;durP1;ratioP1;P1;durP2;ratioP2;P2;SDS_P1;SDS_P2;PMS_P1;PMS_P2;Temp;Humidity;BMP_temperature;BMP_pressure;BME280_temperature;BME280_humidity;BME280_pressure;Samples;Min_cycle;Max_cycle;Signal;HPM_P1;HPM_P2
2022/08/03 00:01:17;;;;;;;3.92;1.48;;;25.10;41.60;;;;;;4957354;29;20028;-79
2022/08/03 00:03:44;;;;;;;3.80;1.38;;;25.10;41.80;;;;;;4957087;29;20035;-80
2022/08/03 00:06:10;;;;;;;6.90;1.75;;;25.00;41.80;;;;;;4940114;29;20411;-79
2022/08/03 00:08:35;;;;;;;5.80;1.67;;;25.10;43.30;;;;;;4939847;29;20024;-79
2022/08/03 00:11:01;;;;;;;3.28;1.60;;;24.90;42.80;;;;;;4957432;29;20034;-79
2022/08/03 00:13:27;;;;;;;3.75;1.38;;;24.90;43.10;;;;;;4957128;29;20476;-79
2022/08/03 00:15:53;;;;;;;2.78;1.50;;;24.80;44.00;;;;;;4958142;28;20027;-79
2022/08/03 00:18:19;;;;;;;4.85;1.70;;;24.80;44.30;;;;;;4956608;29;20035;-79
2022/08/03 00:20:45;;;;;;;3.13;1.75;;;24.80;44.90;;;;;;4957220;29;20047;-79
2022/08/03 00:23:10;;;;;;;4.80;1.80;;;24.70;45.60;;;;;;4956671;29;20035;-79
2022/08/03 00:25:36;;;;;;;5.40;1.77;;;24.70;45.40;;;;;;4957014;29;20110;-80
2022/08/03 00:28:03;;;;;;;4.28;1.60;;;24.70;47.10;;;;;;4956987;29;20380;-79
2022/08/03 00:30:30;;;;;;;5.30;1.50;;;24.60;47.50;;;;;;4956579;29;20070;-79
2022/08/03 00:32:56;;;;;;;2.55;1.20;;;24.50;47.50;;;;;;4957309;29;20466;-79
2022/08/03 00:35:22;;;;;;;5.18;1.33;;;24.50;47.40;;;;;;4956213;29;20031;-79
2022/08/03 00:37:48;;;;;;;7.25;1.98;;;24.50;49.80;;;;;;4956734;28;20086;-79
2022/08/03 00:40:15;;;;;;;8.60;2.20;;;24.40;56.90;;;;;;4956601;29;20035;-79
2022/08/03 00:42:53;;;;;;;4.18;2.00;;;24.40;57.90;;;;;;4957033;29;20058;-79
2022/08/03 00:45:20;;;;;;;4.95;1.63;;;24.40;56.80;;;;;;4955326;29;20448;-79
2022/08/03 00:47:46;;;;;;;2.67;1.35;;;24.30;56.30;;;;;;4957058;29;20023;-79
2022/08/03 00:50:12;;;;;;;3.80;1.38;;;24.30;54.00;;;;;;4939343;29;20038;-80
2022/08/03 00:52:38;;;;;;;7.70;1.30;;;24.30;58.00;;;;;;4938856;29;20114;-79
2022/08/03 00:55:04;;;;;;;3.10;1.20;;;24.20;53.90;;;;;;4938562;29;20419;-80
2022/08/03 00:57:31;;;;;;;4.25;1.30;;;24.10;56.90;;;;;;4957659;28;20035;-80
2022/08/03 00:59:58;;;;;;;2.72;1.30;;;24.10;57.50;;;;;;4968908;28;20394;-79
2022/08/03 01:02:26;;;;;;;4.80;1.33;;;24.10;58.60;;;;;;4956531;29;20116;-79
2022/08/03 01:04:52;;;;;;;4.40;1.25;;;24.00;58.50;;;;;;4956123;29;20490;-79
2022/08/03 01:07:50;;;;;;;1.92;1.10;;;23.90;58.40;;;;;;4956552;29;20032;-79
2022/08/03 01:10:24;;;;;;;3.05;1.25;;;24.00;59.40;;;;;;4955517;28;20508;-79
2022/08/03 01:13:24;;;;;;;1.80;1.30;;;23.80;59.50;;;;;;4955965;29;20106;-79
2022/08/03 01:16:00;;;;;;;2.83;1.20;;;23.80;61.50;;;;;;4955884;29;20102;-79
2022/08/03 01:18:26;;;;;;;2.63;1.25;;;23.70;61.50;;;;;;4955877;29;20078;-79
2022/08/03 01:20:55;;;;;;;2.35;1.10;;;23.80;62.80;;;;;;4955850;28;20027;-79
2022/08/03 01:23:20;;;;;;;5.28;1.70;;;23.60;62.10;;;;;;4956128;29;20536;-79
2022/08/03 01:26:12;;;;;;;6.95;1.35;;;23.60;61.20;;;;;;4955430;29;20118;-80
2022/08/03 01:29:02;;;;;;;3.00;0.90;;;23.60;61.70;;;;;;4950403;29;20034;-79
2022/08/03 01:31:41;;;;;;;7.22;1.60;;;23.40;59.00;;;;;;4955708;29;20472;-79
2022/08/03 01:34:11;;;;;;;6.32;1.88;;;23.40;65.80;;;;;;4955406;29;20028;-79
2022/08/03 01:36:47;;;;;;;2.83;1.42;;;23.40;67.90;;;;;;4961052;28;20026;-79
2022/08/03 01:39:14;;;;;;;3.13;1.20;;;23.30;68.30;;;;;;4940915;28;20035;-79
2022/08/03 01:41:51;;;;;;;2.58;1.17;;;23.20;69.70;;;;;;4955177;29;20078;-79
2022/08/03 01:44:19;;;;;;;2.60;1.10;;;23.20;66.80;;;;;;4955230;29;20027;-79
2022/08/03 01:46:48;;;;;;;2.50;1.38;;;23.10;71.20;;;;;;4938588;29;20105;-80
2022/08/03 01:49:15;;;;;;;5.00;1.63;;;23.20;70.00;;;;;;4955572;29;20074;-79
2022/08/03 01:51:42;;;;;;;6.82;1.20;;;23.10;70.20;;;;;;4954639;29;20043;-79
2022/08/03 01:54:10;;;;;;;4.07;1.30;;;23.20;67.60;;;;;;4971959;28;20563;-79
2022/08/03 01:56:38;;;;;;;2.90;1.08;;;23.10;68.90;;;;;;4974536;28;20398;-79
2022/08/03 01:59:07;;;;;;;2.90;1.23;;;22.90;68.00;;;;;;4974513;28;20097;-79
2022/08/03 02:01:35;;;;;;;5.25;1.30;;;22.90;74.60;;;;;;4974460;28;20786;-79
2022/08/03 02:04:02;;;;;;;5.60;1.40;;;23.00;75.40;;;;;;4974827;28;20023;-79
2022/08/03 02:06:31;;;;;;;6.78;1.50;;;23.00;79.40;;;;;;4969744;28;20031;-79
2022/08/03 02:08:59;;;;;;;2.85;1.25;;;23.00;68.20;;;;;;4955000;29;20111;-79
2022/08/03 02:11:26;;;;;;;4.03;1.30;;;22.70;64.70;;;;;;4955599;29;20027;-79
2022/08/03 02:13:53;;;;;;;2.40;1.40;;;22.70;74.30;;;;;;4954823;29;20484;-79
2022/08/03 02:16:22;;;;;;;2.97;1.65;;;22.70;67.90;;;;;;4955211;29;20460;-79
2022/08/03 02:18:47;;;;;;;4.45;1.35;;;22.60;69.80;;;;;;4936992;28;20027;-79
2022/08/03 02:21:14;;;;;;;5.38;1.00;;;22.70;70.30;;;;;;4954459;28;20517;-79
2022/08/03 02:23:40;;;;;;;1.92;1.08;;;22.60;71.10;;;;;;4954666;29;20387;-79
2022/08/03 02:26:13;;;;;;;3.20;1.30;;;22.40;64.70;;;;;;4954893;29;20115;-79
2022/08/03 02:28:42;;;;;;;2.67;1.50;;;22.20;64.50;;;;;;4936990;29;20391;-79
2022/08/03 02:31:14;;;;;;;3.97;1.58;;;22.20;63.70;;;;;;4958316;28;20035;-79
2022/08/03 02:33:46;;;;;;;4.53;1.40;;;22.00;64.70;;;;;;4960368;28;20031;-79
2022/08/03 02:36:14;;;;;;;5.18;1.50;;;21.90;65.50;;;;;;4954604;29;20034;-79
2022/08/03 02:38:42;;;;;;;3.35;1.40;;;21.80;66.30;;;;;;4937638;29;20114;-79
2022/08/03 02:41:17;;;;;;;2.72;1.40;;;21.60;68.20;;;;;;4954432;29;20491;-79
2022/08/03 02:43:47;;;;;;;3.05;1.30;;;21.60;67.70;;;;;;4954466;29;20023;-79
2022/08/03 02:46:16;;;;;;;3.28;1.45;;;21.70;67.90;;;;;;4954522;28;20093;-80
2022/08/03 02:48:43;;;;;;;2.10;1.05;;;21.60;67.10;;;;;;4953878;29;20471;-79
2022/08/03 02:51:10;;;;;;;5.22;1.33;;;21.80;68.20;;;;;;4953362;28;20133;-79
2022/08/03 02:53:36;;;;;;;3.42;1.42;;;21.90;67.00;;;;;;4953427;29;20518;-79
2022/08/03 02:56:04;;;;;;;4.13;1.92;;;22.00;71.60;;;;;;4936005;29;20043;-79
2022/08/03 02:58:31;;;;;;;2.40;1.00;;;22.10;66.70;;;;;;4953871;29;20027;-79
2022/08/03 03:00:57;;;;;;;3.92;1.08;;;22.10;77.50;;;;;;4953162;29;20027;-79
2022/08/03 03:03:24;;;;;;;6.43;1.55;;;22.10;63.90;;;;;;4953805;29;20069;-79
2022/08/03 03:05:50;;;;;;;3.60;1.30;;;22.10;63.50;;;;;;4935901;29;20031;-79
2022/08/03 03:08:18;;;;;;;3.05;1.30;;;22.00;64.90;;;;;;4953466;29;20031;-79
2022/08/03 03:10:45;;;;;;;3.92;1.15;;;22.10;63.50;;;;;;4952296;29;20034;-79
2022/08/03 03:13:13;;;;;;;3.45;1.40;;;22.10;62.10;;;;;;4953746;29;20090;-79
2022/08/03 03:15:42;;;;;;;2.15;1.25;;;22.10;62.10;;;;;;4934134;29;20404;-80
2022/08/03 03:18:09;;;;;;;5.78;1.23;;;22.20;62.00;;;;;;4934181;29;20094;-79
2022/08/03 03:20:37;;;;;;;5.95;1.55;;;22.20;62.20;;;;;;4949572;29;20038;-79
2022/08/03 03:23:04;;;;;;;2.35;1.30;;;22.30;61.80;;;;;;4952954;29;20023;-79
2022/08/03 03:25:31;;;;;;;2.70;1.33;;;22.40;62.10;;;;;;4935765;29;20056;-79
2022/08/03 03:28:01;;;;;;;3.22;1.40;;;22.50;63.60;;;;;;4953114;29;20094;-79
2022/08/03 03:30:27;;;;;;;5.43;1.40;;;22.50;64.20;;;;;;4952987;29;20030;-79
2022/08/03 03:32:54;;;;;;;2.60;1.25;;;22.50;65.60;;;;;;4952797;29;20468;-79
2022/08/03 03:35:19;;;;;;;2.88;1.30;;;22.60;67.40;;;;;;4953075;29;20035;-79
2022/08/03 03:37:45;;;;;;;4.20;1.70;;;22.60;69.10;;;;;;4953022;29;20031;-79
2022/08/03 03:40:12;;;;;;;3.63;1.23;;;22.60;70.00;;;;;;4935374;29;20031;-80
2022/08/03 03:42:38;;;;;;;5.78;1.88;;;22.80;70.30;;;;;;4952466;29;20491;-79
2022/08/03 03:45:05;;;;;;;7.32;1.55;;;22.90;71.40;;;;;;4935932;29;20035;-79
2022/08/03 03:47:32;;;;;;;3.08;1.63;;;22.80;72.30;;;;;;4953156;29;20103;-79
2022/08/03 03:49:58;;;;;;;1.90;1.33;;;22.80;74.70;;;;;;4903838;28;1418147;-78
2022/08/03 03:52:24;;;;;;;3.60;1.45;;;22.80;76.00;;;;;;4953595;29;20031;-79
2022/08/03 03:54:49;;;;;;;4.28;1.70;;;22.80;76.10;;;;;;4953409;29;20521;-79
2022/08/03 03:57:15;;;;;;;2.95;1.60;;;22.80;78.00;;;;;;4953237;29;20511;-79
2022/08/03 03:59:42;;;;;;;5.88;2.33;;;22.70;82.10;;;;;;4953522;29;20084;-79
2022/08/03 04:02:09;;;;;;;4.75;1.67;;;22.70;85.20;;;;;;4953929;29;20570;-79
2022/08/03 04:12:59;;;;;;;4.93;1.70;;;22.50;90.90;;;;;;4957705;28;20034;-79
2022/08/03 04:15:28;;;;;;;6.07;1.70;;;22.50;91.90;;;;;;4972877;28;20027;-79
2022/08/03 04:17:57;;;;;;;6.45;2.45;;;22.50;92.40;;;;;;4972717;28;20059;-79
2022/08/03 04:20:28;;;;;;;7.63;2.10;;;22.50;92.60;;;;;;4972847;28;20507;-79
2022/08/03 04:22:56;;;;;;;6.90;2.40;;;22.50;91.30;;;;;;4972402;28;20027;-79
2022/08/03 04:25:27;;;;;;;4.70;1.40;;;22.50;92.00;;;;;;4972732;28;20027;-79
2022/08/03 04:27:57;;;;;;;5.33;1.70;;;22.40;91.10;;;;;;4959261;28;20015;-79
2022/08/03 04:30:26;;;;;;;8.52;1.80;;;22.30;90.40;;;;;;4972549;28;20035;-79
2022/08/03 04:32:53;;;;;;;2.53;1.50;;;22.20;90.00;;;;;;4972293;28;20031;-79
2022/08/03 04:35:18;;;;;;;5.53;1.58;;;22.10;89.50;;;;;;4952691;28;20037;-79
2022/08/03 04:37:48;;;;;;;4.85;1.40;;;22.00;90.30;;;;;;4953300;29;20031;-79
2022/08/03 04:40:29;;;;;;;2.40;1.50;;;21.90;90.60;;;;;;4953196;29;20452;-79
2022/08/03 04:42:57;;;;;;;6.25;1.40;;;21.90;90.40;;;;;;4953350;29;20035;-79
2022/08/03 04:45:24;;;;;;;4.95;1.70;;;21.80;91.30;;;;;;4954120;28;20063;-79
2022/08/03 04:47:50;;;;;;;5.57;1.55;;;21.80;90.40;;;;;;4956795;29;20031;-79
2022/08/03 04:50:17;;;;;;;6.00;1.40;;;21.70;91.60;;;;;;4959493;28;20415;-79
2022/08/03 04:52:43;;;;;;;5.32;1.60;;;21.80;90.40;;;;;;4961726;28;20506;-79
2022/08/03 04:55:09;;;;;;;6.72;1.40;;;21.80;89.20;;;;;;4956430;29;20504;-79
2022/08/03 04:57:34;;;;;;;3.92;1.33;;;21.70;89.70;;;;;;4956660;29;20055;-79
2022/08/03 05:00:00;;;;;;;6.63;1.75;;;21.60;89.40;;;;;;4956775;28;20035;-79
2022/08/03 05:02:26;;;;;;;6.25;2.10;;;21.70;88.60;;;;;;4956431;29;20015;-79
2022/08/03 05:04:52;;;;;;;3.47;1.30;;;21.70;88.00;;;;;;4956148;29;20042;-79
2022/08/03 05:07:17;;;;;;;6.80;1.38;;;21.80;87.60;;;;;;4956192;28;20496;-79
2022/08/03 05:09:44;;;;;;;5.13;1.60;;;21.80;88.80;;;;;;4964608;28;20377;-79
2022/08/03 05:12:10;;;;;;;3.85;1.40;;;21.70;90.20;;;;;;4965788;28;20030;-79
2022/08/03 05:14:37;;;;;;;7.15;1.70;;;21.60;91.10;;;;;;4961583;28;20023;-79
2022/08/03 05:17:06;;;;;;;2.90;1.60;;;21.70;91.60;;;;;;4964502;28;20455;-79
2022/08/03 05:19:32;;;;;;;3.42;1.42;;;21.70;91.70;;;;;;4966940;28;20109;-79
2022/08/03 05:21:58;;;;;;;3.95;1.42;;;21.70;91.30;;;;;;4965742;28;20054;-79
2022/08/03 05:24:24;;;;;;;4.57;1.52;;;21.70;91.00;;;;;;4963842;28;20102;-79
2022/08/03 05:26:49;;;;;;;4.18;1.77;;;21.70;91.70;;;;;;4955996;28;20521;-79
2022/08/03 05:29:15;;;;;;;1.90;1.20;;;21.70;92.00;;;;;;4954743;28;20535;-79
2022/08/03 05:31:41;;;;;;;4.85;1.10;;;21.70;91.70;;;;;;4963457;28;20016;-79
2022/08/03 05:34:07;;;;;;;4.63;1.73;;;21.70;91.90;;;;;;4963037;28;20476;-79
2022/08/03 05:36:32;;;;;;;2.65;1.13;;;21.70;92.10;;;;;;4963024;28;20027;-79
2022/08/03 05:38:58;;;;;;;5.85;1.60;;;21.70;92.70;;;;;;4971148;28;20026;-79
2022/08/03 05:41:24;;;;;;;3.50;1.40;;;21.70;92.30;;;;;;4962980;28;20027;-79
2022/08/03 05:43:53;;;;;;;12.15;1.95;;;21.70;92.40;;;;;;4963091;28;20102;-80
2022/08/03 05:46:20;;;;;;;5.85;1.80;;;21.80;92.40;;;;;;4960481;28;20030;-79
2022/08/03 05:48:46;;;;;;;5.28;1.38;;;21.80;92.60;;;;;;4966400;28;20099;-79
2022/08/03 05:51:12;;;;;;;2.88;1.33;;;21.80;92.40;;;;;;4964068;28;20055;-79
2022/08/03 05:53:39;;;;;;;4.65;1.60;;;21.80;92.50;;;;;;4963113;28;20114;-80
2022/08/03 05:56:04;;;;;;;5.03;1.60;;;21.90;92.10;;;;;;4962838;28;20031;-79
2022/08/03 05:58:30;;;;;;;4.55;1.67;;;21.80;92.60;;;;;;4947898;28;20046;-79
2022/08/03 06:00:56;;;;;;;3.20;1.60;;;21.90;92.20;;;;;;4961931;28;20058;-80
2022/08/03 06:03:21;;;;;;;6.47;1.73;;;21.90;92.80;;;;;;4965726;28;20491;-79
2022/08/03 06:05:47;;;;;;;3.97;1.73;;;22.00;93.00;;;;;;4968167;28;20482;-84
2022/08/03 06:08:13;;;;;;;5.97;1.70;;;22.10;92.60;;;;;;4957974;28;20454;-79
2022/08/03 06:10:38;;;;;;;3.00;1.63;;;22.10;94.30;;;;;;4941521;29;20031;-79
2022/08/03 06:13:04;;;;;;;5.88;1.70;;;22.20;93.60;;;;;;4954823;28;20027;-79
2022/08/03 06:15:32;;;;;;;6.50;1.73;;;22.40;93.70;;;;;;4954588;28;20411;-74
2022/08/03 06:17:58;;;;;;;6.38;1.80;;;22.50;92.00;;;;;;4954605;28;20444;-74
2022/08/03 06:20:24;;;;;;;6.35;1.80;;;22.70;91.30;;;;;;4957662;28;20074;-74
2022/08/03 06:22:50;;;;;;;5.25;1.30;;;22.70;92.10;;;;;;4966002;28;20491;-74
2022/08/03 06:25:16;;;;;;;5.97;1.58;;;22.80;90.90;;;;;;4954557;29;20023;-74
2022/08/03 06:27:42;;;;;;;3.55;1.70;;;23.00;91.00;;;;;;4954801;28;20023;-73
2022/08/03 06:30:09;;;;;;;8.95;2.05;;;23.10;90.60;;;;;;4954292;29;20376;-74
2022/08/03 06:32:38;;;;;;;4.22;1.80;;;23.10;90.50;;;;;;4954792;28;20027;-73
2022/08/03 06:35:05;;;;;;;4.97;1.80;;;23.20;90.80;;;;;;4957026;28;20031;-74
2022/08/03 06:37:40;;;;;;;4.47;1.55;;;23.30;90.50;;;;;;4956609;28;20500;-72
2022/08/03 06:40:06;;;;;;;7.85;1.70;;;23.40;90.30;;;;;;4957933;28;20019;-74
2022/08/03 06:42:32;;;;;;;6.60;1.52;;;23.40;91.00;;;;;;4958623;28;20051;-74
2022/08/03 06:44:58;;;;;;;6.40;1.77;;;23.50;90.80;;;;;;4962061;28;20060;-77
2022/08/03 06:47:23;;;;;;;10.18;2.05;;;23.60;90.90;;;;;;4953484;29;20110;-74
2022/08/03 06:49:49;;;;;;;5.22;2.22;;;23.70;90.70;;;;;;4954395;28;20110;-74
2022/08/03 06:52:14;;;;;;;15.57;2.17;;;23.70;91.10;;;;;;4953801;29;20457;-75
2022/08/03 06:54:40;;;;;;;6.60;1.83;;;23.80;90.90;;;;;;4953940;29;20114;-74
2022/08/03 06:57:07;;;;;;;3.97;1.77;;;23.90;91.10;;;;;;4953899;28;20455;-73
2022/08/03 06:59:32;;;;;;;5.15;2.03;;;23.90;90.60;;;;;;4962535;28;20105;-72
2022/08/03 07:01:58;;;;;;;9.05;2.50;;;24.00;90.20;;;;;;4954937;28;20031;-73
2022/08/03 07:04:24;;;;;;;3.72;1.92;;;24.10;90.70;;;;;;4954043;28;20492;-75
2022/08/03 07:06:49;;;;;;;10.02;2.28;;;24.10;90.40;;;;;;4954359;29;20045;-75
2022/08/03 07:09:15;;;;;;;4.28;2.15;;;24.20;90.10;;;;;;4953236;28;20054;-77
2022/08/03 07:11:40;;;;;;;4.88;2.03;;;24.20;90.30;;;;;;4954423;29;20114;-76
2022/08/03 07:14:06;;;;;;;5.00;1.90;;;24.30;89.50;;;;;;4953961;29;20055;-76
2022/08/03 07:16:32;;;;;;;8.02;1.77;;;24.30;89.70;;;;;;4953677;29;20468;-75
2022/08/03 07:18:57;;;;;;;7.75;2.20;;;24.40;89.90;;;;;;4954178;29;20098;-74
2022/08/03 07:21:23;;;;;;;7.97;2.10;;;24.40;89.30;;;;;;4953987;29;20078;-74
2022/08/03 07:23:48;;;;;;;5.20;1.85;;;24.60;89.30;;;;;;4953978;29;20293;-74
2022/08/03 07:26:14;;;;;;;5.68;2.15;;;24.60;88.60;;;;;;4953674;29;20041;-74
2022/08/03 07:28:40;;;;;;;9.85;1.77;;;24.70;88.60;;;;;;4953769;29;20554;-74
2022/08/03 07:31:05;;;;;;;4.88;1.73;;;24.80;88.20;;;;;;4953879;29;20027;-76
2022/08/03 07:33:31;;;;;;;8.65;2.45;;;24.90;87.40;;;;;;4953835;29;20146;-73
2022/08/03 07:35:58;;;;;;;4.93;1.55;;;25.00;87.30;;;;;;4957017;28;20029;-75
2022/08/03 07:38:23;;;;;;;7.53;1.70;;;25.00;87.60;;;;;;4953478;29;20035;-74
2022/08/03 07:40:49;;;;;;;105.90;7.80;;;25.10;87.70;;;;;;4942757;29;20451;-80
2022/08/03 07:43:16;;;;;;;9.00;1.90;;;25.20;86.80;;;;;;4953415;29;20063;-74
2022/08/03 07:45:42;;;;;;;7.45;2.08;;;25.20;86.60;;;;;;4952991;29;20465;-73
2022/08/03 07:48:07;;;;;;;6.80;2.10;;;25.40;86.30;;;;;;4953378;29;20098;-73
2022/08/03 07:50:33;;;;;;;9.73;2.03;;;25.50;85.40;;;;;;4955485;28;20090;-74
2022/08/03 07:52:59;;;;;;;3.97;1.70;;;25.50;84.90;;;;;;4963748;28;20058;-73
2022/08/03 07:55:26;;;;;;;10.15;2.05;;;25.60;85.70;;;;;;4961204;28;20110;-73
2022/08/03 07:57:59;;;;;;;3.78;1.92;;;25.70;85.90;;;;;;4954186;29;20415;-74
2022/08/03 08:00:25;;;;;;;8.25;2.38;;;25.90;86.40;;;;;;4953537;29;20082;-78
2022/08/03 08:02:50;;;;;;;8.20;2.10;;;26.00;85.60;;;;;;4954603;29;20023;-79
2022/08/03 08:05:16;;;;;;;8.80;2.33;;;26.20;83.80;;;;;;4954293;29;20019;-80
2022/08/03 08:07:42;;;;;;;7.22;2.22;;;26.40;83.30;;;;;;4937296;29;20526;-80
2022/08/03 08:10:09;;;;;;;4.75;1.92;;;26.60;82.70;;;;;;4952961;29;20031;-82
2022/08/03 08:12:36;;;;;;;13.45;2.50;;;26.80;81.70;;;;;;4925436;29;20031;-80
2022/08/03 08:15:02;;;;;;;6.88;2.17;;;27.00;80.50;;;;;;4943178;29;20031;-79
2022/08/03 08:17:28;;;;;;;4.20;2.03;;;27.30;79.20;;;;;;4945895;29;20082;-79
2022/08/03 08:19:53;;;;;;;14.73;2.70;;;27.50;77.30;;;;;;4935615;29;20031;-79
2022/08/03 08:22:19;;;;;;;7.45;2.30;;;27.80;75.80;;;;;;4925624;29;20035;-79
2022/08/03 08:24:47;;;;;;;8.05;2.08;;;28.00;75.00;;;;;;4953479;29;20027;-79
2022/08/03 08:27:13;;;;;;;3.15;2.00;;;28.20;73.40;;;;;;4944173;29;20034;-79
2022/08/03 08:29:38;;;;;;;8.27;2.20;;;28.30;72.40;;;;;;4948245;29;20016;-80
2022/08/03 08:32:04;;;;;;;4.78;2.30;;;28.60;72.80;;;;;;4957311;28;20543;-79
2022/08/03 08:34:30;;;;;;;4.10;2.15;;;28.90;71.00;;;;;;4923510;29;20436;-80
2022/08/03 08:36:55;;;;;;;4.20;2.13;;;29.30;69.60;;;;;;4940959;29;20039;-80
2022/08/03 08:39:21;;;;;;;6.60;2.20;;;29.60;67.90;;;;;;4927228;29;20091;-79
2022/08/03 08:41:50;;;;;;;5.40;1.98;;;29.90;67.10;;;;;;4950780;29;20043;-80
2022/08/03 08:44:16;;;;;;;8.35;2.30;;;30.10;65.90;;;;;;4948799;29;20447;-80
2022/08/03 08:46:42;;;;;;;6.20;1.88;;;30.00;64.10;;;;;;4950713;29;20032;-80
2022/08/03 08:49:09;;;;;;;8.57;2.65;;;30.20;64.30;;;;;;4950206;29;20031;-80
2022/08/03 08:51:37;;;;;;;8.80;2.25;;;30.50;62.80;;;;;;4956805;28;20102;-80
2022/08/03 08:54:06;;;;;;;3.17;2.00;;;30.50;60.60;;;;;;4965351;28;20106;-80
2022/08/03 08:56:33;;;;;;;10.30;3.28;;;30.50;61.50;;;;;;4961805;28;20078;-80
2022/08/03 08:59:00;;;;;;;4.45;2.15;;;31.00;59.60;;;;;;4963671;28;20094;-80
2022/08/03 09:01:26;;;;;;;10.75;2.13;;;31.10;58.20;;;;;;4973710;28;20398;-79
2022/08/03 09:03:53;;;;;;;8.60;2.50;;;31.10;58.30;;;;;;4965011;28;20126;-79
2022/08/03 09:06:19;;;;;;;8.43;2.47;;;30.90;59.40;;;;;;4942507;28;20030;-82
2022/08/03 09:08:45;;;;;;;16.70;2.38;;;31.10;57.50;;;;;;4943896;29;20110;-82
2022/08/03 09:11:11;;;;;;;6.28;2.30;;;31.20;57.10;;;;;;4957002;29;20106;-82
2022/08/03 09:13:37;;;;;;;7.78;2.30;;;31.30;56.80;;;;;;4939444;29;20031;-82
2022/08/03 09:16:13;;;;;;;4.63;2.42;;;31.50;56.70;;;;;;4956657;29;20527;-82
2022/08/03 09:18:40;;;;;;;3.92;1.92;;;31.90;56.30;;;;;;4957211;29;20514;-82
2022/08/03 09:21:17;;;;;;;7.13;2.03;;;32.40;53.80;;;;;;4956679;29;20042;-82
2022/08/03 09:23:48;;;;;;;6.05;2.58;;;32.10;52.80;;;;;;4953636;29;20031;-82
2022/08/03 09:26:23;;;;;;;6.05;2.22;;;31.50;52.60;;;;;;4939387;29;20031;-83
2022/08/03 09:29:00;;;;;;;3.05;2.05;;;31.90;52.30;;;;;;4956348;29;20409;-82
2022/08/03 09:31:30;;;;;;;6.03;2.17;;;32.00;50.80;;;;;;4956317;28;20031;-82
2022/08/03 09:33:59;;;;;;;7.18;2.83;;;32.10;50.00;;;;;;4939318;29;20027;-82
2022/08/03 09:36:36;;;;;;;8.70;2.30;;;32.00;49.90;;;;;;4956350;28;20117;-82
2022/08/03 09:39:09;;;;;;;9.40;2.00;;;32.20;49.10;;;;;;4956455;29;20058;-82
2022/08/03 09:41:36;;;;;;;6.88;2.10;;;32.40;49.20;;;;;;4956096;29;20035;-74
2022/08/03 09:44:02;;;;;;;4.55;1.90;;;32.30;48.10;;;;;;4956353;29;20495;-82
2022/08/03 09:46:30;;;;;;;5.55;2.10;;;32.10;47.20;;;;;;4939811;29;20038;-75
2022/08/03 09:49:11;;;;;;;7.43;2.30;;;32.20;47.50;;;;;;4963874;28;20050;-83
2022/08/03 09:51:37;;;;;;;5.60;1.75;;;32.70;46.20;;;;;;4962704;28;20515;-82
2022/08/03 09:54:03;;;;;;;4.05;1.90;;;32.80;44.00;;;;;;4963382;28;20031;-83
2022/08/03 09:56:46;;;;;;;7.72;1.92;;;32.80;44.40;;;;;;4938607;29;20028;-83
2022/08/03 09:59:21;;;;;;;4.60;1.80;;;32.70;44.80;;;;;;4958082;28;20027;-83
2022/08/03 10:01:47;;;;;;;5.10;2.17;;;32.90;42.50;;;;;;4968215;28;20034;-83
2022/08/03 10:04:15;;;;;;;8.60;2.10;;;33.00;41.90;;;;;;4955346;28;20023;-81
2022/08/03 10:06:59;;;;;;;8.35;2.40;;;33.00;42.60;;;;;;4955470;29;20026;-81
2022/08/03 10:09:26;;;;;;;6.20;1.85;;;33.20;42.20;;;;;;4955609;29;20015;-81
2022/08/03 10:11:51;;;;;;;7.90;2.13;;;33.20;40.70;;;;;;4955158;29;20023;-80
2022/08/03 10:14:17;;;;;;;7.03;1.75;;;33.30;40.10;;;;;;4952965;28;20402;-80
2022/08/03 10:16:45;;;;;;;9.55;1.83;;;33.30;40.40;;;;;;4960426;28;20027;-80
2022/08/03 10:19:11;;;;;;;6.85;2.00;;;33.70;39.90;;;;;;4970951;28;20049;-79
2022/08/03 10:21:38;;;;;;;7.70;1.60;;;33.90;39.00;;;;;;4955613;28;20487;-80
2022/08/03 10:24:09;;;;;;;6.60;1.83;;;33.30;39.50;;;;;;4961671;28;20042;-79
2022/08/03 10:26:37;;;;;;;;;;;33.70;40.40;;;;;;4974551;28;20027;-80
2022/08/03 10:29:07;;;;;;;4.10;1.80;;;33.80;38.80;;;;;;4942724;29;20330;-80
2022/08/03 10:31:38;;;;;;;7.35;1.80;;;34.10;38.30;;;;;;4954873;28;20390;-79
2022/08/03 10:34:10;;;;;;;3.90;1.60;;;34.50;37.90;;;;;;4974834;28;20105;-79
2022/08/03 10:36:38;;;;;;;7.43;2.08;;;34.50;35.00;;;;;;4974929;28;20054;-79
2022/08/03 10:39:03;;;;;;;6.60;1.65;;;33.90;35.50;;;;;;4974772;28;20026;-80
2022/08/03 10:41:38;;;;;;;4.35;1.83;;;33.70;33.30;;;;;;4974640;28;20046;-80
2022/08/03 10:44:12;;;;;;;6.65;1.90;;;34.00;32.60;;;;;;4973880;28;20023;-80
2022/08/03 10:46:38;;;;;;;5.78;1.90;;;34.20;33.60;;;;;;4957461;28;20042;-80
2022/08/03 10:49:05;;;;;;;4.22;1.70;;;34.00;33.50;;;;;;4974419;28;20077;-80
2022/08/03 10:51:31;;;;;;;6.20;1.70;;;34.10;34.50;;;;;;4970419;28;20593;-79
2022/08/03 10:53:58;;;;;;;5.25;1.85;;;34.10;34.70;;;;;;4955114;29;20055;-79
2022/08/03 10:59:19;;;;;;;5.53;1.85;;;34.90;33.30;;;;;;4955367;29;20042;-80
2022/08/03 11:01:55;;;;;;;4.55;1.77;;;34.40;30.50;;;;;;4954957;29;20031;-80
2022/08/03 11:04:25;;;;;;;4.55;1.70;;;34.60;29.90;;;;;;4971539;28;20110;-79
2022/08/03 11:07:16;;;;;;;7.35;1.75;;;35.30;29.60;;;;;;4955222;28;20027;-80
2022/08/03 11:09:52;;;;;;;3.13;1.80;;;35.20;29.00;;;;;;4954722;29;20031;-80
2022/08/03 11:12:30;;;;;;;4.65;2.22;;;35.10;29.20;;;;;;4954875;29;20086;-80
2022/08/03 11:15:01;;;;;;;5.45;1.88;;;35.00;29.30;;;;;;4955136;29;20042;-80
2022/08/03 11:17:27;;;;;;;7.43;2.13;;;35.50;28.70;;;;;;4955010;29;20042;-80
2022/08/03 11:19:53;;;;;;;4.38;1.63;;;35.00;29.10;;;;;;4955162;29;20027;-79
2022/08/03 11:22:20;;;;;;;6.68;1.80;;;35.60;30.00;;;;;;4954245;29;20368;-79
2022/08/03 11:24:49;;;;;;;6.60;1.80;;;35.50;27.30;;;;;;4954418;29;20026;-79
2022/08/03 11:27:22;;;;;;;4.80;1.80;;;35.10;25.70;;;;;;4954643;29;20113;-80
2022/08/03 11:30:08;;;;;;;4.90;1.80;;;35.20;27.10;;;;;;4955361;29;20019;-79
2022/08/03 11:32:38;;;;;;;10.43;1.77;;;35.30;27.80;;;;;;4954613;29;20037;-79
2022/08/03 11:35:11;;;;;;;11.88;2.17;;;35.20;24.50;;;;;;4954834;29;20472;-79
2022/08/03 11:37:59;;;;;;;4.43;1.65;;;35.50;24.30;;;;;;4954410;29;20102;-79
2022/08/03 11:40:44;;;;;;;3.65;1.70;;;35.70;25.50;;;;;;4954053;29;20095;-79
2022/08/03 11:43:29;;;;;;;3.05;1.60;;;35.70;25.10;;;;;;4954290;29;20051;-80
2022/08/03 11:46:04;;;;;;;2.83;1.92;;;36.40;25.30;;;;;;4954421;29;20411;-80
2022/08/03 11:48:34;;;;;;;5.63;1.50;;;36.70;25.30;;;;;;4954351;29;20019;-80
2022/08/03 11:51:01;;;;;;;7.57;1.65;;;36.10;25.30;;;;;;4954720;29;20047;-80
2022/08/03 11:53:27;;;;;;;4.32;1.40;;;36.30;25.40;;;;;;4954011;29;20027;-79
2022/08/03 11:55:52;;;;;;;5.10;1.70;;;36.50;21.60;;;;;;4940803;29;20110;-79
2022/08/03 11:58:22;;;;;;;6.90;1.73;;;36.60;24.00;;;;;;4958203;29;20119;-79
2022/08/03 12:00:49;;;;;;;4.45;1.65;;;36.90;24.50;;;;;;4963162;28;20031;-79
2022/08/03 12:03:19;;;;;;;5.13;1.60;;;37.40;24.50;;;;;;4976276;28;20053;-79
2022/08/03 12:05:52;;;;;;;2.88;1.60;;;37.00;25.40;;;;;;4977574;28;20027;-79
2022/08/03 12:08:28;;;;;;;5.78;1.90;;;36.50;25.40;;;;;;4960054;28;20105;-79
2022/08/03 12:10:56;;;;;;;4.47;2.20;;;36.40;25.80;;;;;;4977878;28;20022;-80
2022/08/03 12:13:24;;;;;;;10.23;1.65;;;35.90;25.80;;;;;;4977342;28;20038;-80
2022/08/03 12:15:58;;;;;;;4.75;1.80;;;36.20;26.20;;;;;;4960115;28;20027;-80
2022/08/03 12:18:24;;;;;;;6.90;1.80;;;36.20;25.40;;;;;;4968986;28;20038;-82
2022/08/03 12:20:52;;;;;;;5.13;1.77;;;36.50;26.00;;;;;;4957560;29;20046;-85
2022/08/03 12:23:18;;;;;;;7.50;2.17;;;36.40;26.60;;;;;;4952764;28;20054;-81
2022/08/03 12:25:45;;;;;;;4.32;1.63;;;36.90;26.80;;;;;;4941840;28;20094;-74
2022/08/03 12:28:23;;;;;;;7.50;2.13;;;36.40;26.40;;;;;;4974493;28;20026;-80
2022/08/03 12:30:51;;;;;;;3.85;1.65;;;36.50;26.60;;;;;;4957848;29;20023;-80
2022/08/03 12:33:19;;;;;;;4.45;2.03;;;36.50;25.90;;;;;;4957113;28;20031;-80
2022/08/03 12:35:46;;;;;;;3.25;1.90;;;36.50;25.70;;;;;;4961289;28;20031;-82
2022/08/03 12:38:12;;;;;;;4.63;1.90;;;37.00;27.10;;;;;;4957483;29;20080;-86
2022/08/03 12:40:39;;;;;;;6.05;1.90;;;36.90;28.00;;;;;;4952442;28;20065;-76
2022/08/03 12:43:12;;;;;;;4.00;1.73;;;37.20;28.00;;;;;;4959545;28;20036;-79
2022/08/03 12:45:38;;;;;;;3.60;1.75;;;36.90;27.70;;;;;;4948491;28;20035;-76
2022/08/03 12:48:09;;;;;;;4.03;2.17;;;36.40;28.70;;;;;;4956839;28;20381;-77
2022/08/03 12:50:37;;;;;;;6.65;2.15;;;36.70;28.00;;;;;;4964380;28;20038;-80
2022/08/03 12:53:05;;;;;;;4.47;1.88;;;35.90;28.20;;;;;;4961314;28;20368;-75
2022/08/03 12:55:35;;;;;;;5.82;1.98;;;36.20;27.30;;;;;;4960151;28;20082;-75
2022/08/03 12:58:02;;;;;;;6.22;2.30;;;36.10;28.60;;;;;;4957008;29;20337;-80
2022/08/03 13:00:29;;;;;;;2.83;1.67;;;36.10;27.90;;;;;;4954440;28;20110;-82
2022/08/03 13:03:00;;;;;;;3.22;1.88;;;35.80;27.30;;;;;;4957277;29;20411;-81